Time;durP1;ratioP1;P1;durP2;ratioP2;P2;SDS_P1;SDS_P2;PMS_P1;PMS_P2;Temp;Humidity;BMP_temperature;BMP_pressure;BME280_temperature;BME280_humidity;BME280_pressure;Samples;Min_cycle;Max_cycle;Signal;HPM_P1;HPM_P2
2023/10/20 00:00:15;;;;;;;26.23;18.97;;;8.30;99.90;;;7.38;100.00;98615.81;5056217;28;20759;-69
2023/10/20 00:02:45;;;;;;;28.07;19.43;;;8.30;99.90;;;7.41;100.00;98610.09;5056116;28;20239;-69
2023/10/20 00:05:14;;;;;;;28.10;19.37;;;8.40;99.90;;;7.40;100.00;98616.41;5056325;28;20233;-69
2023/10/20 00:07:46;;;;;;;26.67;18.43;;;8.40;99.90;;;7.40;100.00;98613.75;5056409;28;20249;-69
2023/10/20 00:10:14;;;;;;;25.57;18.93;;;8.30;99.90;;;7.36;100.00;98628.50;5055985;28;20728;-69
2023/10/20 00:12:42;;;;;;;26.33;19.27;;;8.30;99.90;;;7.39;100.00;98644.09;5056266;28;20201;-69
2023/10/20 00:15:13;;;;;;;31.10;20.60;;;8.30;99.90;;;7.41;100.00;98627.91;5056138;28;20670;-69
2023/10/20 00:17:43;;;;;;;27.07;18.57;;;8.20;99.90;;;7.42;100.00;98622.41;5055917;28;20636;-69
2023/10/20 00:20:12;;;;;;;30.90;20.80;;;8.30;99.90;;;7.41;100.00;98615.41;5056132;28;20293;-69
2023/10/20 00:22:42;;;;;;;29.60;19.63;;;8.30;99.90;;;7.40;100.00;98620.91;5055973;28;20214;-69
2023/10/20 00:25:12;;;;;;;31.37;20.20;;;8.40;99.90;;;7.41;100.00;98609.25;5055695;28;20735;-69
2023/10/20 00:27:41;;;;;;;29.73;19.87;;;8.40;99.90;;;7.42;100.00;98603.75;5055952;28;20206;-69
2023/10/20 00:30:11;;;;;;;31.97;20.77;;;8.30;99.90;;;7.38;100.00;98615.81;5055929;28;20206;-69
2023/10/20 00:32:40;;;;;;;28.50;19.87;;;8.30;99.90;;;7.41;100.00;98614.59;5055943;28;20206;-69
2023/10/20 00:35:13;;;;;;;29.40;20.30;;;8.40;99.90;;;7.34;100.00;98614.53;5055910;28;20221;-69
2023/10/20 00:37:42;;;;;;;32.67;21.00;;;8.30;99.90;;;7.38;100.00;98615.81;5055536;28;20281;-69
2023/10/20 00:40:13;;;;;;;28.53;18.80;;;8.30;99.90;;;7.37;100.00;98619.47;5055463;28;20699;-69
2023/10/20 00:42:41;;;;;;;29.40;20.37;;;8.20;99.90;;;7.38;100.00;98621.13;5055715;28;20194;-69
2023/10/20 00:45:10;;;;;;;28.37;19.53;;;8.30;99.90;;;7.38;100.00;98607.00;5055536;28;20240;-69
2023/10/20 00:47:40;;;;;;;30.73;19.60;;;8.20;99.90;;;7.33;100.00;98612.88;5055649;28;20209;-69
2023/10/20 00:50:11;;;;;;;32.40;19.67;;;8.30;99.90;;;7.35;100.00;98604.72;5055255;28;20680;-69
2023/10/20 00:52:44;;;;;;;28.03;18.97;;;8.20;99.90;;;7.34;100.00;98597.72;5055259;28;20703;-69
2023/10/20 00:55:16;;;;;;;32.13;20.43;;;8.30;99.90;;;7.33;100.00;98599.56;5054627;28;20629;-69
2023/10/20 00:57:45;;;;;;;31.33;20.27;;;8.30;99.90;;;7.33;100.00;98588.91;5055432;28;20624;-69
2023/10/20 01:00:15;;;;;;;30.20;20.10;;;8.30;99.90;;;7.33;100.00;98590.78;5055358;28;20206;-69
2023/10/20 01:02:43;;;;;;;30.33;19.87;;;8.20;99.90;;;7.34;100.00;98592.41;5055329;28;20285;-69
2023/10/20 01:05:14;;;;;;;28.37;19.97;;;8.30;99.90;;;7.34;100.00;98600.41;5055152;28;20268;-69
2023/10/20 01:07:43;;;;;;;29.57;18.73;;;8.30;99.90;;;7.34;100.00;98593.25;5055250;28;20189;-69
2023/10/20 01:10:13;;;;;;;26.87;18.63;;;8.30;99.90;;;7.38;100.00;98578.53;5055229;28;20213;-69
2023/10/20 01:12:42;;;;;;;27.67;18.57;;;8.30;99.90;;;7.35;100.00;98576.25;5055096;28;20206;-69
2023/10/20 01:15:14;;;;;;;29.03;19.27;;;8.30;99.90;;;7.32;100.00;98575.81;5055032;28;20337;-69
2023/10/20 01:17:43;;;;;;;25.67;18.57;;;8.20;99.90;;;7.29;100.00;98574.38;5055073;28;20205;-69
2023/10/20 01:20:12;;;;;;;28.33;18.83;;;8.20;99.90;;;7.32;100.00;98578.47;5054674;28;20668;-69
2023/10/20 01:22:41;;;;;;;26.20;18.20;;;8.20;99.90;;;7.29;100.00;98574.38;5054940;28;20239;-69
2023/10/20 01:25:11;;;;;;;25.87;17.93;;;8.20;99.90;;;7.30;100.00;98570.69;5054742;28;20230;-69
2023/10/20 01:27:39;;;;;;;28.47;18.10;;;8.20;99.90;;;7.34;100.00;98576.44;5054848;28;20206;-69
2023/10/20 01:30:10;;;;;;;24.60;16.63;;;8.20;99.90;;;7.36;100.00;98571.75;5054855;28;20555;-69
2023/10/20 01:32:41;;;;;;;25.07;16.70;;;8.20;99.90;;;7.35;100.00;98578.09;5054513;28;20689;-69
2023/10/20 01:35:10;;;;;;;24.73;16.67;;;8.20;99.90;;;7.31;100.00;98582.16;5054711;28;20328;-69
2023/10/20 01:37:38;;;;;;;25.40;16.23;;;8.20;99.90;;;7.31;100.00;98572.34;5054694;28;20250;-69
2023/10/20 01:40:09;;;;;;;26.47;17.67;;;8.20;99.90;;;7.36;100.00;98569.94;5054644;28;20210;-69
2023/10/20 01:42:39;;;;;;;24.57;16.43;;;8.20;99.90;;;7.36;100.00;98564.59;5054606;28;20218;-69
2023/10/20 01:45:09;;;;;;;25.27;17.33;;;8.30;99.90;;;7.35;100.00;98554.97;5054026;28;20230;-69
2023/10/20 01:47:38;;;;;;;23.33;16.60;;;8.30;99.90;;;7.38;100.00;98549.25;5054579;28;20194;-69
2023/10/20 01:50:07;;;;;;;21.57;16.13;;;8.40;99.90;;;7.40;100.00;98533.06;5054403;28;20668;-69
2023/10/20 01:52:35;;;;;;;26.27;16.03;;;8.20;99.90;;;7.35;100.00;98535.50;5054061;28;20802;-69
2023/10/20 01:55:04;;;;;;;22.83;15.60;;;8.30;99.90;;;7.39;100.00;98531.44;5053905;28;20268;-69
2023/10/20 01:57:32;;;;;;;20.70;14.60;;;8.20;99.90;;;7.35;100.00;98541.66;5054031;28;20651;-69
2023/10/20 02:00:04;;;;;;;21.47;14.77;;;8.20;99.90;;;7.32;100.00;98531.41;5054218;28;20210;-69
2023/10/20 02:02:32;;;;;;;21.07;14.70;;;8.20;99.90;;;7.29;100.00;98526.47;5054266;28;20256;-69
2023/10/20 02:05:01;;;;;;;21.30;14.70;;;8.20;99.90;;;7.29;100.00;98509.66;5053906;28;20280;-69
2023/10/20 02:07:29;;;;;;;20.03;14.40;;;8.10;99.90;;;7.26;100.00;98500.22;5053180;28;20304;-69
2023/10/20 02:09:57;;;;;;;20.47;13.83;;;8.20;99.90;;;7.22;100.00;98491.00;5054075;28;20252;-69
2023/10/20 02:12:25;;;;;;;17.40;13.60;;;8.20;99.90;;;7.24;100.00;98496.94;5054068;28;20206;-69
2023/10/20 02:14:53;;;;;;;20.43;13.93;;;8.20;99.90;;;7.22;100.00;98493.66;5053900;28;20257;-69
2023/10/20 02:17:23;;;;;;;19.43;14.20;;;8.10;99.90;;;7.24;100.00;98482.81;5053977;28;20216;-69
2023/10/20 02:19:51;;;;;;;19.27;14.53;;;8.20;99.90;;;7.27;100.00;98480.56;5053886;28;20336;-69
2023/10/20 02:22:19;;;;;;;18.37;12.70;;;8.20;99.90;;;7.28;100.00;98465.44;5053881;28;20234;-69
2023/10/20 02:24:47;;;;;;;16.83;12.93;;;8.20;99.90;;;7.25;100.00;98453.34;5053389;28;20265;-69
2023/10/20 02:27:16;;;;;;;20.23;12.90;;;8.20;99.90;;;7.19;100.00;98451.47;5053466;28;20767;-69
2023/10/20 02:29:44;;;;;;;24.07;14.40;;;8.20;99.90;;;7.23;100.00;98447.38;5053715;28;20232;-69
2023/10/20 02:32:12;;;;;;;19.93;13.97;;;8.20;99.90;;;7.22;100.00;98445.75;5053751;28;20216;-69
2023/10/20 02:34:42;;;;;;;21.40;14.40;;;8.10;99.90;;;7.19;100.00;98454.13;5053611;28;20222;-69
2023/10/20 02:37:12;;;;;;;18.70;14.20;;;8.10;99.90;;;7.21;100.00;98470.72;5053330;28;20301;-69
2023/10/20 02:39:40;;;;;;;21.33;14.23;;;8.20;99.90;;;7.18;100.00;98480.91;5053300;28;20672;-69
2023/10/20 02:42:08;;;;;;;21.13;14.17;;;8.10;99.90;;;7.18;100.00;98476.41;5053292;28;20665;-69
2023/10/20 02:44:36;;;;;;;21.93;14.07;;;8.10;99.90;;;7.18;100.00;98472.94;5052987;28;20677;-69
2023/10/20 02:47:05;;;;;;;23.03;13.87;;;8.30;99.90;;;7.17;100.00;98477.44;5053209;28;20206;-69
2023/10/20 02:49:33;;;;;;;21.67;14.63;;;8.00;99.90;;;7.13;100.00;98470.84;5053482;28;20258;-69
2023/10/20 02:52:02;;;;;;;21.63;15.00;;;8.10;99.90;;;7.12;100.00;98470.00;5053402;28;20206;-68
2023/10/20 02:54:31;;;;;;;21.57;14.63;;;8.10;99.90;;;7.16;100.00;98462.47;5053404;28;20202;-68
2023/10/20 02:56:59;;;;;;;21.80;14.13;;;8.10;99.90;;;7.17;100.00;98458.81;5053381;28;20205;-68
2023/10/20 02:59:27;;;;;;;19.47;13.77;;;8.20;99.90;;;7.15;100.00;98460.84;5053412;28;20206;-68
2023/10/20 03:01:55;;;;;;;20.60;14.03;;;8.10;99.90;;;7.17;100.00;98452.66;5053297;28;20202;-69
2023/10/20 03:04:24;;;;;;;19.13;13.70;;;8.10;99.90;;;7.18;100.00;98454.31;5053193;28;20256;-69
2023/10/20 03:06:52;;;;;;;21.27;14.57;;;8.10;99.90;;;7.14;100.00;98453.88;5052999;28;20305;-69
2023/10/20 03:09:22;;;;;;;19.87;14.20;;;8.10;99.90;;;7.16;100.00;98441.19;5053333;28;20212;-69
2023/10/20 03:11:50;;;;;;;22.70;15.20;;;8.10;99.90;;;7.16;100.00;98435.06;5052493;28;20229;-69
2023/10/20 03:14:18;;;;;;;24.53;15.37;;;8.10;99.90;;;7.13;100.00;98439.75;5052179;28;20225;-69
2023/10/20 03:16:46;;;;;;;25.97;15.10;;;8.10;99.90;;;7.12;100.00;98430.09;5053361;28;20202;-69
2023/10/20 03:19:14;;;;;;;24.13;14.70;;;8.00;99.90;;;7.14;100.00;98427.25;5057314;28;20206;-69
2023/10/20 03:21:43;;;;;;;23.57;15.00;;;8.10;99.90;;;7.12;100.00;98424.00;5057386;28;20237;-69
2023/10/20 03:24:11;;;;;;;20.67;14.07;;;8.10;99.90;;;7.16;100.00;98430.53;5057264;28;20210;-69
2023/10/20 03:26:41;;;;;;;22.30;14.90;;;8.10;99.90;;;7.12;100.00;98431.97;5057378;28;20225;-69
2023/10/20 03:29:10;;;;;;;24.30;16.73;;;8.10;99.90;;;7.18;100.00;98444.50;5057428;28;20194;-68
2023/10/20 03:31:38;;;;;;;21.87;14.53;;;8.10;99.90;;;7.19;100.00;98435.50;5057166;28;20206;-68
2023/10/20 03:34:06;;;;;;;27.17;14.90;;;8.10;99.90;;;7.19;100.00;98438.16;5058072;28;20297;-68
2023/10/20 03:36:34;;;;;;;28.00;15.80;;;8.10;99.90;;;7.16;100.00;98441.19;5056609;28;20320;-69
2023/10/20 03:39:14;;;;;;;28.10;17.03;;;8.10;99.90;;;7.17;100.00;98432.19;5057033;28;20214;-69
2023/10/20 03:41:43;;;;;;;24.67;15.77;;;8.20;99.90;;;7.13;100.00;98414.97;5056945;28;20201;-69
2023/10/20 03:44:13;;;;;;;28.17;17.07;;;8.10;99.90;;;7.13;100.00;98425.63;5056528;28;20215;-69
2023/10/20 03:46:48;;;;;;;24.30;15.83;;;8.10;99.90;;;7.13;100.00;98420.28;5056758;28;20230;-69
2023/10/20 03:49:18;;;;;;;27.53;15.80;;;8.10;99.90;;;7.06;100.00;98422.09;5056782;28;20216;-69
2023/10/20 03:51:49;;;;;;;24.23;15.93;;;8.00;99.90;;;7.10;100.00;98426.00;5056666;28;20206;-69
2023/10/20 03:54:17;;;;;;;29.60;16.93;;;8.10;99.90;;;7.09;100.00;98414.53;5056613;28;20285;-69
2023/10/20 03:56:47;;;;;;;23.77;14.63;;;8.00;99.90;;;7.09;100.00;98403.06;5056634;28;20229;-69
2023/10/20 03:59:16;;;;;;;28.83;17.13;;;8.00;99.90;;;7.06;100.00;98398.97;5056194;28;20572;-69
2023/10/20 04:01:44;;;;;;;26.83;16.63;;;8.10;99.90;;;7.09;100.00;98397.75;5056471;28;20210;-69
2023/10/20 04:04:12;;;;;;;30.03;16.90;;;8.00;99.90;;;7.08;100.00;98396.13;5056049;28;20213;-69
2023/10/20 04:06:41;;;;;;;26.60;16.20;;;8.00;99.90;;;7.06;100.00;98388.31;5056015;28;20798;-69
2023/10/20 04:09:09;;;;;;;23.63;15.73;;;8.00;99.90;;;7.07;100.00;98375.84;5056394;28;20206;-69
2023/10/20 04:11:38;;;;;;;26.87;15.70;;;8.00;99.90;;;7.05;100.00;98380.56;5056385;28;20222;-69
2023/10/20 04:14:08;;;;;;;28.97;16.50;;;8.00;99.90;;;7.07;100.00;98383.81;5056306;28;20233;-69
2023/10/20 04:16:39;;;;;;;25.63;16.33;;;8.00;99.90;;;7.08;100.00;98396.94;5057081;28;20615;-69
2023/10/20 04:19:09;;;;;;;26.50;16.57;;;8.00;99.90;;;7.11;100.00;98390.41;5056185;28;20182;-69
2023/10/20 04:21:39;;;;;;;27.30;16.53;;;8.10;99.90;;;7.05;100.00;98396.50;5056158;28;20205;-69
2023/10/20 04:24:09;;;;;;;22.23;15.73;;;8.00;99.90;;;7.11;100.00;98387.75;5056109;28;20221;-69
2023/10/20 04:26:39;;;;;;;27.90;17.30;;;8.00;99.90;;;7.12;100.00;98368.91;5056077;28;20260;-69
2023/10/20 04:29:23;;;;;;;24.63;15.80;;;8.00;99.90;;;7.13;100.00;98361.75;5055140;28;20289;-69
2023/10/20 04:51:24;;;;;;;24.77;16.60;;;7.90;99.90;;;7.00;100.00;98309.31;5055374;28;20710;-69
2023/10/20 04:53:53;;;;;;;24.97;17.17;;;8.00;99.90;;;7.03;100.00;98300.09;5055613;28;20190;-69
2023/10/20 04:56:38;;;;;;;24.03;16.40;;;7.90;99.90;;;6.99;100.00;98282.88;5055446;28;20229;-68
2023/10/20 04:59:09;;;;;;;21.50;15.20;;;8.00;99.90;;;7.00;100.00;98292.50;5055143;28;20648;-68
2023/10/20 05:01:44;;;;;;;24.07;15.33;;;7.90;99.90;;;6.97;100.00;98300.88;5055443;28;20214;-68
2023/10/20 05:04:16;;;;;;;20.90;14.73;;;7.90;99.90;;;6.96;100.00;98294.75;5055273;28;20186;-68
2023/10/20 05:06:44;;;;;;;25.23;16.33;;;7.90;99.90;;;6.95;100.00;98301.06;5055247;28;20214;-69
2023/10/20 05:09:17;;;;;;;24.20;15.90;;;8.00;99.90;;;6.94;100.00;98303.94;5055302;28;20259;-69
2023/10/20 05:11:46;;;;;;;26.43;16.97;;;7.90;99.90;;;6.96;100.00;98318.69;5055321;28;20190;-69
2023/10/20 05:14:14;;;;;;;25.27;16.87;;;7.90;99.90;;;6.93;100.00;98303.13;5055059;28;20245;-69
2023/10/20 05:16:44;;;;;;;23.33;16.83;;;7.90;99.90;;;6.93;100.00;98303.13;5055140;28;20206;-69
2023/10/20 05:19:12;;;;;;;23.67;16.50;;;7.90;99.90;;;6.93;100.00;98302.28;5054794;28;20652;-69
2023/10/20 05:21:40;;;;;;;21.67;15.83;;;8.00;99.90;;;6.92;100.00;98306.78;5054653;28;20245;-68
2023/10/20 05:24:09;;;;;;;20.73;15.00;;;7.90;99.90;;;6.97;100.00;98303.56;5054723;28;20698;-68
2023/10/20 05:26:37;;;;;;;22.97;16.27;;;7.80;99.90;;;6.91;100.00;98291.03;5054507;28;20719;-69
2023/10/20 05:29:07;;;;;;;19.60;15.33;;;7.90;99.90;;;6.93;100.00;98291.66;5054899;28;20233;-69
2023/10/20 05:31:35;;;;;;;18.27;14.90;;;7.80;99.90;;;6.93;100.00;98294.31;5054474;28;20293;-69
2023/10/20 05:34:05;;;;;;;18.77;14.13;;;7.90;99.90;;;6.98;100.00;98278.59;5054753;28;20213;-69
2023/10/20 05:36:33;;;;;;;21.93;15.23;;;7.80;99.90;;;6.90;100.00;98258.31;5054340;28;20696;-69
2023/10/20 05:39:01;;;;;;;20.00;15.13;;;7.80;99.90;;;6.90;100.00;98245.00;5054728;28;20252;-69
2023/10/20 05:41:30;;;;;;;19.33;14.63;;;7.90;99.90;;;6.92;100.00;98252.75;5054301;28;20570;-69
2023/10/20 05:43:58;;;;;;;21.07;15.87;;;7.90;99.90;;;6.92;100.00;98274.88;5054366;28;20221;-69
2023/10/20 05:46:26;;;;;;;20.13;14.03;;;7.90;99.90;;;6.92;100.00;98263.41;5054381;28;20282;-69
2023/10/20 05:48:54;;;;;;;17.70;13.93;;;7.90;99.90;;;6.93;100.00;98259.72;5054589;28;20205;-68
2023/10/20 05:51:24;;;;;;;18.03;14.03;;;7.90;99.90;;;6.89;100.00;98263.81;5054654;28;20249;-69
2023/10/20 05:53:53;;;;;;;18.20;13.90;;;7.70;99.90;;;6.88;100.00;98262.19;5054434;28;20237;-69
2023/10/20 05:56:21;;;;;;;16.33;13.47;;;7.80;99.90;;;6.84;100.00;98271.56;5054295;28;20222;-68
2023/10/20 05:58:50;;;;;;;16.63;12.53;;;7.80;99.90;;;6.83;100.00;98273.41;5054299;28;20268;-68
2023/10/20 06:01:19;;;;;;;16.73;13.60;;;7.80;99.90;;;6.86;100.00;98266.84;5054240;28;20612;-69
2023/10/20 06:03:47;;;;;;;15.27;11.97;;;7.80;99.90;;;6.90;100.00;98270.78;5054199;28;20210;-69
2023/10/20 06:06:15;;;;;;;15.97;12.47;;;7.90;99.90;;;6.94;100.00;98269.38;5053624;28;20608;-69
2023/10/20 06:08:45;;;;;;;14.87;11.37;;;8.00;99.90;;;6.89;100.00;98266.47;5054102;28;20229;-70
2023/10/20 06:11:13;;;;;;;15.67;11.33;;;7.90;99.90;;;6.89;100.00;98263.81;5054105;28;20268;-69
2023/10/20 06:13:41;;;;;;;15.37;12.13;;;7.80;99.90;;;6.86;100.00;98254.38;5053710;28;20722;-69
2023/10/20 06:16:10;;;;;;;17.03;11.53;;;7.80;99.90;;;6.92;100.00;98242.94;5053916;28;20333;-69
2023/10/20 06:18:41;;;;;;;13.13;11.63;;;7.80;99.90;;;6.94;100.00;98253.41;5053636;28;20737;-69
2023/10/20 06:21:15;;;;;;;13.60;10.70;;;7.90;99.90;;;6.88;100.00;98239.06;5053664;28;20668;-69
2023/10/20 06:23:46;;;;;;;12.87;10.07;;;7.80;99.90;;;6.87;100.00;98239.25;5053919;28;20202;-69
2023/10/20 06:26:14;;;;;;;13.67;11.17;;;7.90;99.90;;;6.91;100.00;98236.00;5053781;28;20325;-69
2023/10/20 06:28:43;;;;;;;14.43;11.03;;;7.90;99.90;;;6.91;100.00;98229.88;5053448;28;20209;-69
2023/10/20 06:31:36;;;;;;;12.67;10.63;;;7.80;99.90;;;6.91;100.00;98214.72;5053465;28;20683;-69
2023/10/20 06:34:17;;;;;;;12.13;9.60;;;7.90;99.90;;;6.88;100.00;98224.94;5053469;28;20619;-69
2023/10/20 06:36:48;;;;;;;11.30;9.57;;;7.90;99.90;;;6.88;100.00;98227.59;5053742;28;20213;-69
2023/10/20 06:39:20;;;;;;;11.33;9.20;;;7.80;99.90;;;6.90;100.00;98206.94;5053687;28;20229;-69
2023/10/20 06:41:48;;;;;;;11.23;10.00;;;7.90;99.90;;;6.90;100.00;98197.13;5053682;28;20600;-69
2023/10/20 06:44:16;;;;;;;12.87;9.83;;;7.90;99.90;;;6.91;100.00;98197.94;5053182;28;20264;-70
2023/10/20 06:46:45;;;;;;;11.90;10.20;;;7.80;99.90;;;6.87;100.00;98196.69;5053603;28;20230;-69
2023/10/20 06:49:18;;;;;;;10.87;8.53;;;7.80;99.90;;;6.88;100.00;98193.84;5053579;28;20210;-69
2023/10/20 06:51:47;;;;;;;11.67;9.50;;;7.90;99.90;;;6.88;100.00;98174.41;5053163;28;20194;-69
2023/10/20 06:54:18;;;;;;;10.47;9.10;;;7.90;99.90;;;6.90;100.00;98164.38;5053335;28;20202;-69
2023/10/20 06:56:46;;;;;;;10.63;9.07;;;7.90;99.90;;;6.92;100.00;98172.97;5053483;28;20304;-69
2023/10/20 06:59:14;;;;;;;10.93;8.73;;;8.00;99.90;;;6.93;100.00;98167.47;5053137;28;20672;-69
2023/10/20 07:01:43;;;;;;;11.17;8.67;;;8.00;99.90;;;6.91;100.00;98158.06;5053006;28;20241;-68
2023/10/20 07:04:13;;;;;;;8.93;7.57;;;7.90;99.90;;;6.94;100.00;98169.13;5053289;28;20212;-67
2023/10/20 07:06:41;;;;;;;9.50;7.90;;;7.90;99.90;;;6.94;100.00;98157.66;5053226;28;20260;-67
2023/10/20 07:09:13;;;;;;;8.77;7.80;;;7.90;99.90;;;6.94;100.00;98165.63;5053021;28;20301;-67
2023/10/20 07:11:44;;;;;;;9.23;7.70;;;7.90;99.90;;;6.94;100.00;98155.00;5053313;28;20194;-67
2023/10/20 07:14:13;;;;;;;9.07;7.07;;;7.90;99.90;;;6.95;100.00;98146.00;5053253;28;20248;-67
2023/10/20 07:16:42;;;;;;;8.63;6.50;;;7.90;99.90;;;6.91;100.00;98144.75;5053269;28;20233;-67
2023/10/20 07:19:12;;;;;;;7.90;6.60;;;8.00;99.90;;;6.95;100.00;98156.66;5053222;28;20205;-68
2023/10/20 07:21:41;;;;;;;7.67;5.77;;;7.90;99.90;;;6.98;100.00;98150.91;5053214;28;20190;-67
2023/10/20 07:24:09;;;;;;;5.70;5.07;;;7.90;99.90;;;6.98;100.00;98158.91;5052878;28;20747;-67
2023/10/20 07:26:37;;;;;;;6.17;5.23;;;7.90;99.90;;;6.97;100.00;98157.25;5053073;28;20300;-67
2023/10/20 07:29:07;;;;;;;5.03;4.50;;;7.90;99.90;;;6.94;100.00;98160.31;5053131;28;20214;-67
2023/10/20 07:31:38;;;;;;;6.20;4.97;;;8.00;99.90;;;6.93;100.00;98153.34;5053114;28;20205;-67
2023/10/20 07:34:09;;;;;;;6.37;5.20;;;8.00;99.90;;;6.97;100.00;98155.41;5053145;28;20206;-67
2023/10/20 07:36:37;;;;;;;6.43;5.20;;;7.80;99.90;;;6.94;100.00;98144.34;5053094;28;20200;-67
2023/10/20 07:39:08;;;;;;;6.30;4.30;;;8.00;99.90;;;6.92;100.00;98141.88;5053032;28;20252;-67
2023/10/20 07:41:37;;;;;;;8.23;4.80;;;7.90;99.90;;;6.96;100.00;98159.09;5053033;28;20233;-67
2023/10/20 07:44:08;;;;;;;5.80;4.80;;;7.90;99.90;;;6.95;100.00;98151.31;5052642;28;20214;-67
2023/10/20 07:46:37;;;;;;;5.73;4.40;;;7.90;99.90;;;6.94;100.00;98145.19;5053807;28;20300;-60
2023/10/20 07:49:05;;;;;;;4.83;4.33;;;7.90;99.90;;;6.98;100.00;98145.59;5052987;28;20231;-67
2023/10/20 07:51:33;;;;;;;4.90;4.00;;;7.90;99.90;;;6.99;100.00;98131.25;5052946;28;20233;-68
2023/10/20 07:54:01;;;;;;;4.50;4.10;;;7.90;99.90;;;6.97;100.00;98131.47;5052746;28;20293;-67
2023/10/20 07:56:30;;;;;;;5.17;3.83;;;7.80;99.90;;;6.96;100.00;98126.34;5052683;28;20234;-67
2023/10/20 07:58:59;;;;;;;4.33;3.93;;;7.90;99.90;;;6.99;100.00;98118.78;5052780;28;20198;-67
2023/10/20 08:01:28;;;;;;;5.70;3.97;;;7.90;99.90;;;7.00;100.00;98116.94;5052781;28;20296;-67
2023/10/20 08:03:56;;;;;;;7.13;4.20;;;7.90;99.90;;;7.03;100.00;98132.50;5053197;28;20210;-67
2023/10/20 08:06:25;;;;;;;4.80;3.50;;;7.90;99.90;;;6.99;100.00;98131.25;5056405;28;20229;-67
2023/10/20 08:08:54;;;;;;;4.43;3.47;;;7.90;99.90;;;6.98;100.00;98130.47;5056069;28;20234;-67
2023/10/20 08:11:22;;;;;;;4.13;3.20;;;7.90;99.90;;;6.93;100.00;98124.91;5056316;28;20220;-67
2023/10/20 08:13:51;;;;;;;3.83;3.20;;;7.90;99.90;;;6.95;100.00;98130.84;5055590;28;20613;-67
2023/10/20 08:16:21;;;;;;;3.90;2.90;;;7.90;99.90;;;6.91;100.00;98116.31;5055870;28;20708;-67
2023/10/20 08:18:51;;;;;;;4.20;3.50;;;7.90;99.90;;;6.95;100.00;98122.06;5056198;28;20202;-67
2023/10/20 08:21:20;;;;;;;3.97;2.90;;;8.00;99.90;;;6.97;100.00;98117.34;5056018;28;20187;-67
2023/10/20 08:23:48;;;;;;;5.53;2.87;;;8.00;99.90;;;6.92;100.00;98117.94;5056131;28;20305;-67
2023/10/20 08:26:19;;;;;;;3.00;2.63;;;8.00;99.90;;;6.93;100.00;98116.09;5055754;28;20230;-68
2023/10/20 08:28:49;;;;;;;4.43;2.70;;;7.80;99.90;;;6.93;100.00;98106.28;5055674;28;20213;-68
2023/10/20 08:31:17;;;;;;;3.07;2.73;;;7.90;99.90;;;6.95;100.00;98087.50;5055575;28;20245;-67
2023/10/20 08:33:46;;;;;;;2.93;2.70;;;7.90;99.90;;;6.94;100.00;98101.78;5055945;28;20202;-68
2023/10/20 08:36:17;;;;;;;3.87;2.97;;;7.90;99.90;;;6.88;100.00;98097.28;5055475;28;20571;-68
2023/10/20 08:38:48;;;;;;;3.20;2.63;;;7.80;99.90;;;6.90;100.00;98087.25;5055901;28;20198;-67
2023/10/20 08:41:21;;;;;;;3.53;2.93;;;7.90;99.90;;;6.87;100.00;98085.81;5055418;28;20668;-67
2023/10/20 08:43:50;;;;;;;3.47;2.57;;;7.90;99.90;;;6.90;100.00;98085.41;5055590;28;20222;-68
2023/10/20 08:46:22;;;;;;;4.00;2.53;;;7.80;99.90;;;6.89;100.00;98098.91;5055359;28;20727;-68
2023/10/20 08:48:50;;;;;;;3.43;2.60;;;7.90;99.90;;;6.90;100.00;98093.41;5055690;28;20242;-68
2023/10/20 08:51:20;;;;;;;3.50;2.73;;;7.90;99.90;;;6.90;100.00;98080.09;5055609;28;20206;-68
2023/10/20 08:53:49;;;;;;;3.93;2.87;;;7.90;99.90;;;6.90;100.00;98084.59;5055286;28;20675;-68
2023/10/20 08:56:17;;;;;;;2.43;2.13;;;7.80;99.90;;;6.80;100.00;98097.47;5055425;28;20312;-68
2023/10/20 08:58:48;;;;;;;2.73;2.37;;;7.80;99.90;;;6.79;100.00;98087.84;5055524;28;20206;-68
2023/10/20 09:01:18;;;;;;;2.60;2.37;;;7.80;99.90;;;6.86;100.00;98086.84;5055488;28;20305;-67
2023/10/20 09:03:49;;;;;;;2.90;2.60;;;7.90;99.90;;;6.84;100.00;98091.56;5055455;28;20212;-67
2023/10/20 09:06:17;;;;;;;5.40;2.60;;;7.80;99.90;;;6.84;100.00;98093.38;5055362;28;20226;-67
2023/10/20 09:08:49;;;;;;;2.80;2.37;;;7.80;99.90;;;6.86;100.00;98096.66;5055318;28;20247;-68
2023/10/20 09:11:19;;;;;;;3.13;2.47;;;7.80;99.90;;;6.85;100.00;98103.81;5055314;28;20221;-68
2023/10/20 09:13:47;;;;;;;3.37;2.33;;;7.80;99.90;;;6.79;100.00;98093.16;5054904;28;20213;-68
2023/10/20 09:16:16;;;;;;;2.90;2.53;;;7.70;99.90;;;6.76;100.00;98091.72;5054760;28;20230;-68
2023/10/20 09:18:50;;;;;;;3.53;2.30;;;7.90;99.90;;;6.75;100.00;98095.41;5055034;28;20252;-68
2023/10/20 09:21:24;;;;;;;3.07;2.10;;;7.70;99.90;;;6.74;100.00;98096.44;5055063;28;20190;-68
2023/10/20 09:23:58;;;;;;;2.37;2.17;;;7.70;99.90;;;6.73;100.00;98099.28;5054821;28;20633;-68
2023/10/20 09:26:32;;;;;;;2.83;2.17;;;7.70;99.90;;;6.71;100.00;98109.31;5054934;28;20230;-68
2023/10/20 09:29:00;;;;;;;2.40;2.00;;;7.70;99.90;;;6.75;100.00;98102.53;5054905;28;20214;-68
2023/10/20 09:31:29;;;;;;;2.47;2.03;;;7.70;99.90;;;6.72;100.00;98113.59;5054844;28;20216;-68
2023/10/20 09:33:58;;;;;;;2.83;2.23;;;7.70;99.90;;;6.71;100.00;98118.09;5054616;28;20228;-68
2023/10/20 09:36:30;;;;;;;2.57;2.10;;;7.60;99.90;;;6.70;100.00;98116.47;5054502;28;20233;-68
2023/10/20 09:39:05;;;;;;;2.70;2.27;;;7.60;99.90;;;6.70;100.00;98132.41;5054777;28;20191;-68
2023/10/20 09:41:37;;;;;;;3.70;2.60;;;7.60;99.90;;;6.70;100.00;98127.09;5054439;28;20192;-68
2023/10/20 09:44:08;;;;;;;2.73;2.10;;;7.60;99.90;;;6.71;100.00;98134.06;5054306;28;20218;-68
2023/10/20 09:46:53;;;;;;;3.47;2.27;;;7.60;99.90;;;6.75;100.00;98140.59;5054116;28;20266;-68
2023/10/20 09:49:24;;;;;;;3.17;2.20;;;7.70;99.90;;;6.74;100.00;98143.47;5054465;28;20220;-68
2023/10/20 09:51:54;;;;;;;2.37;2.17;;;7.70;99.90;;;6.70;100.00;98164.31;5054511;28;20191;-68
2023/10/20 09:54:27;;;;;;;2.93;2.50;;;7.70;99.90;;;6.68;100.00;98160.22;5054081;28;20274;-68
2023/10/20 09:56:57;;;;;;;2.67;1.83;;;7.60;99.90;;;6.67;100.00;98163.88;5054099;28;20641;-68
2023/10/20 09:59:28;;;;;;;2.70;2.10;;;7.70;99.90;;;6.69;100.00;98160.00;5054392;28;20190;-68
2023/10/20 10:01:59;;;;;;;2.40;2.20;;;7.70;99.90;;;6.70;100.00;98147.53;5053999;28;20205;-68
2023/10/20 10:04:33;;;;;;;3.03;2.17;;;7.70;99.90;;;6.67;100.00;98142.63;5053915;28;20653;-68
2023/10/20 10:07:04;;;;;;;2.33;1.90;;;7.60;99.90;;;6.68;100.00;98131.78;5053870;28;20663;-68
2023/10/20 10:09:40;;;;;;;3.23;2.40;;;7.80;99.90;;;6.69;100.00;98130.75;5054157;28;20210;-68
2023/10/20 10:12:14;;;;;;;2.60;2.10;;;7.60;99.90;;;6.68;100.00;98133.63;5054175;28;20284;-68
2023/10/20 10:14:42;;;;;;;2.27;2.07;;;7.60;99.90;;;6.69;100.00;98129.94;5054041;28;20230;-68
2023/10/20 10:17:11;;;;;;;3.00;2.37;;;7.70;99.90;;;6.70;100.00;98126.28;5053989;28;20244;-67
2023/10/20 10:19:50;;;;;;;3.23;2.93;;;7.70;99.90;;;6.72;100.00;98132.19;5054016;28;20248;-68
2023/10/20 10:22:27;;;;;;;3.30;2.63;;;7.60;99.90;;;6.76;100.00;98120.16;5053737;28;20648;-68
2023/10/20 10:25:01;;;;;;;4.07;2.63;;;7.70;99.90;;;6.77;100.00;98127.13;5053620;28;20217;-68
2023/10/20 10:27:32;;;;;;;3.40;2.33;;;7.70;99.90;;;6.77;100.00;98132.44;5053224;28;20248;-68
2023/10/20 10:30:05;;;;;;;2.93;2.30;;;7.70;99.90;;;6.72;100.00;98126.88;5053440;28;20688;-68
2023/10/20 10:32:44;;;;;;;2.50;2.20;;;7.70;99.90;;;6.74;100.00;98138.16;5053524;28;20600;-68
2023/10/20 10:35:17;;;;;;;3.13;2.20;;;7.60;99.90;;;6.71;100.00;98127.91;5053714;28;20639;-68
2023/10/20 10:37:45;;;;;;;2.60;1.90;;;7.70;99.90;;;6.72;100.00;98137.50;5053709;28;20198;-68
2023/10/20 10:40:21;;;;;;;2.40;2.00;;;7.70;99.90;;;6.70;100.00;98127.09;5053654;28;20299;-68
2023/10/20 10:42:51;;;;;;;3.07;2.43;;;7.70;99.90;;;6.69;100.00;98121.97;5053162;28;20221;-68
2023/10/20 10:45:22;;;;;;;2.53;2.00;;;7.60;99.90;;;6.70;100.00;98111.13;5053509;28;20229;-68
2023/10/20 10:48:04;;;;;;;2.20;2.00;;;7.80;99.90;;;6.72;100.00;98100.28;5053262;28;20213;-68